Herbert C Jackson — WL3972 — position and weather

sailwx.info

Track history (hours):
 
Tides and Currents Weather Stations Pressure Air Temp Water Temp Dewpoint Dewpoint Depression Visibility Wind Speed Wind Dir Waves Ship Positions

Herbert C Jackson

More information available from US FCC via Universal Licensing System and Coast Guard Vessel Documentation Center.

Last reported at 2014-Aug-19 03:00 UTC. Time now 2014-Aug-20 16:34 UTC.
Position N 46°54' W 085°12'.

Length 239 m; draft 6.2 m.

Type: Cargo ship. MMSI: 366904930.

Wind from 120 at 17 knots

Barometer 1008.8 mb
Air temperature 14.4 ° C
Water temperature 11.4 ° C

Date/timePositionNaut miles runAvg speedWind from/ knotsBaromVisibWave heightAir tempDewpointWater temp
2014-Aug-19 03:00N 46°54' W 085°12'1413.7 120 / 171008.8 14.4 11.4
2014-Aug-19 02:00N 46°48' W 084°54'1312.7 120 / 151009.8 15.4 12.2
2014-Aug-19 01:00N 46°36' W 084°48'715.5 140 / 221009.5 16.1 14.0
2014-Aug-19 00:32N 46°33' W 084°39'3 6.1
2014-Aug-19 00:00N 46°30' W 084°36'18 5.4 120 / 121010.5 16.4 14.6
2014-Aug-18 20:33N 46°22' W 084°12'8 6.5
2014-Aug-18 19:23N 46°15' W 084°06'9 8.4
2014-Aug-18 18:22N 46°07' W 084°01'910.2
2014-Aug-18 17:29N 46°00' W 083°53'4111.9
2014-Aug-18 14:00N 45°24' W 083°24'2713.6 140 / 91015.7 14.8 15.6
2014-Aug-18 12:00N 45°00' W 083°06'1312.7 100 / 101015.0 14.3 15.1
2014-Aug-18 11:00N 44°48' W 083°00'1312.7 300 / 101015.4 13.7 12.9
2014-Aug-18 10:00N 44°36' W 082°54'1312.7 350 / 71014.7 14.6 14.9
2014-Aug-18 09:00N 44°24' W 082°48'2512.7 040 / 101014.0 15.3 15.5
2014-Aug-18 07:00N 44°00' W 082°36'2412.2 060 / 91014.3 16.4 16.6
2014-Aug-18 05:00N 43°36' W 082°30'1918.5 040 / 101015.4 17.4 16.7
2014-Aug-18 04:00N 43°18' W 082°24'1212.0 030 / 141014.7 17.9 17.7
2014-Aug-18 03:00N 43°06' W 082°24'37 7.4 030 / 171014.3 18.4 18.0
2014-Aug-17 22:00N 42°30' W 082°36'25 8.4 240 / 21014.8 22.8 18.2
2014-Aug-17 19:00N 42°18' W 083°06'4 2.2 040 / 121015.2 22.0 19.3
2014-Aug-17 17:00N 42°18' W 083°12'0 0.0 100 / 21015.9 23.0 22.8
2014-Aug-17 16:00N 42°18' W 083°12'0 0.0 120 / 61016.2 21.8 22.8
2014-Aug-17 13:00N 42°18' W 083°12'0 0.0 010 / 31015.5 19.5 22.6
2014-Aug-17 12:00N 42°18' W 083°12'0 0.0 010 / 61015.5 19.0 22.0
2014-Aug-17 11:00N 42°18' W 083°12'0 0.0 010 / 31015.2 19.1 21.6
2014-Aug-17 09:00N 42°18' W 083°12'25 5.0 090 / 41014.2 19.2 21.2
2014-Aug-17 04:00N 42°30' W 082°42'2010.0 300 / 81012.5 21.5 18.2
2014-Aug-17 02:00N 42°48' W 082°30'6 6.0 320 / 41012.7 22.0 17.9
2014-Aug-17 01:00N 42°54' W 082°30'1312.8 160 / 41011.6 22.3 17.8
2014-Aug-17 00:00N 43°06' W 082°24'1212.0 300 / 141011.0 22.1 17.8
2014-Aug-16 23:00N 43°18' W 082°24'2412.2 210 / 91009.9 21.4 17.4
2014-Aug-16 21:00N 43°42' W 082°30'2612.8 220 / 141008.9 20.4 16.8
2014-Aug-16 19:00N 44°06' W 082°42'1010.5 230 / 211008.6 19.7 16.5
2014-Aug-16 18:00N 44°12' W 082°54'1312.9 220 / 231008.9 19.0 16.2
2014-Aug-16 17:00N 44°12' W 083°12'1212.0 220 / 221008.9 18.3 16.2
2014-Aug-16 16:00N 44°24' W 083°12'1312.7 220 / 251007.210.8 1.017.0 15.6
2014-Aug-16 15:00N 44°36' W 083°06'2412.2 240 / 281005.9 17.4 14.0
2014-Aug-16 13:00N 45°00' W 083°00'2713.6 240 / 251005.9 17.7 14.5
2014-Aug-16 11:00N 45°24' W 083°18'1514.7 240 / 121006.9 16.6 13.8
2014-Aug-16 10:00N 45°36' W 083°30'1010.3 230 / 141006.9 14.4 11.4
2014-Aug-16 09:00N 45°42' W 083°42'1514.6 290 / 81007.9 14.1 9.3
2014-Aug-16 08:00N 45°54' W 083°54'20 9.9 180 / 61007.6 13.7 10.2
2014-Aug-16 06:00N 46°12' W 084°06'7 7.3 250 / 101008.9 16.7 14.2
2014-Aug-16 05:00N 46°18' W 084°12'7 7.3 130 / 41009.6 15.2 14.2
2014-Aug-16 04:00N 46°24' W 084°18'7 2.8 050 / 11010.3 14.5 14.2
2014-Aug-16 01:21N 46°30' W 084°25'0 1.3
2014-Aug-16 01:00N 46°30' W 084°24'8 8.3 200 / 31011.2 15.6 14.2
2014-Aug-16 00:00N 46°30' W 084°36'1514.6 010 / 51011.5 15.6 14.4
2014-Aug-15 23:00N 46°42' W 084°48'1010.2 120 / 71011.2 13.9 12.0
2014-Aug-15 22:00N 46°48' W 085°00'2512.3 010 / 41011.9 13.4 10.6
2014-Aug-15 20:00N 46°48' W 085°36'2914.4 270 / 71012.5 13.7 5.3
2014-Aug-15 18:00N 46°48' W 086°18'1413.7 240 / 81013.5 15.3 9.0
2014-Aug-15 17:00N 46°42' W 086°36'1212.3 220 / 101014.2 14.8 8.6
2014-Aug-15 16:00N 46°42' W 086°54'1413.7 240 / 81014.9 15.3 9.6
2014-Aug-15 15:00N 46°36' W 087°12'8 4.1 230 / 31014.9 16.4 10.8
2014-Aug-15 13:00N 46°36' W 087°24'0 0.0 140 / 11015.6 18.0 14.0
2014-Aug-15 12:00N 46°36' W 087°24'0 0.0 270 / 11015.2 15.5 14.1
2014-Aug-15 10:00N 46°36' W 087°24'0 0.0 310 / 21015.2 13.2 14.0
2014-Aug-15 07:00N 46°36' W 087°24'8 8.2 260 / 81015.6 12.6 14.4
2014-Aug-15 06:00N 46°36' W 087°12'916.3 200 / 131015.2 13.8 12.6
2014-Aug-15 05:27N 46°37' W 086°59'4 8.3
2014-Aug-15 05:00N 46°36' W 086°54'2914.7 240 / 141014.927.0 0.513.8 9.9
2014-Aug-15 03:00N 46°42' W 086°12'1010.2 280 / 151014.6 12.8 12.3
2014-Aug-15 02:00N 46°48' W 086°00'1212.3 280 / 181014.2 11.7 10.7
2014-Aug-15 01:00N 46°48' W 085°42'1212.3 270 / 181014.2 9.4 5.8
2014-Aug-15 00:00N 46°48' W 085°24'4511.2 260 / 201014.2 9.6 10.6
2014-Aug-14 20:00N 46°30' W 084°24'4 4.1 300 / 261013.2 13.5 13.7
2014-Aug-14 19:00N 46°30' W 084°18'0 0.0 300 / 201014.3 13.8 13.5
2014-Aug-14 17:00N 46°30' W 084°18'1312.7 290 / 221015.0 12.6 13.4
2014-Aug-14 16:00N 46°18' W 084°12'7 7.3 290 / 281014.0 12.4 13.2
2014-Aug-14 15:00N 46°12' W 084°06'6 7.8 310 / 191015.4 13.0 13.6
2014-Aug-14 14:17N 46°08' W 084°01'2 6.4
2014-Aug-14 14:00N 46°06' W 084°00'712.4 320 / 241014.3 13.0 14.1
2014-Aug-14 13:28N 46°02' W 083°53'816.1
2014-Aug-14 13:00N 45°54' W 083°54'510.6 300 / 191014.7 12.0 9.5
2014-Aug-14 12:33N 45°51' W 083°49'610.2
2014-Aug-14 12:00N 45°48' W 083°42'1312.7 300 / 271014.0 10.7 10.8
2014-Aug-14 11:00N 45°36' W 083°36'1514.7 300 / 251013.7 12.7 14.2
2014-Aug-14 10:00N 45°24' W 083°24'1514.7 320 / 241013.0 12.9 15.2
2014-Aug-14 09:00N 45°12' W 083°12'20 9.9 310 / 221013.3 13.0 13.7
2014-Aug-14 07:00N 44°54' W 083°00'1312.7 350 / 311012.3 13.4 14.3
2014-Aug-14 06:00N 44°42' W 082°54'3812.7 340 / 311012.0 13.4 14.4
2014-Aug-14 03:00N 44°06' W 082°36'1212.0 300 / 381011.0 17.2 16.5
2014-Aug-14 02:00N 43°54' W 082°36'4912.2 300 / 161013.0 18.2 17.1
2014-Aug-13 22:00N 43°06' W 082°24'1212.0 010 / 111013.0 19.5 18.8
2014-Aug-13 21:00N 42°54' W 082°24'35 8.7 310 / 141013.7 21.5 18.6
2014-Aug-13 17:00N 42°24' W 082°48'1110.7 300 / 231012.8 21.3 19.8
2014-Aug-13 16:00N 42°18' W 083°00'9 4.4 310 / 151013.8 20.8 19.7
2014-Aug-13 14:00N 42°18' W 083°12'0 0.0 320 / 161013.1 18.5 21.3
2014-Aug-13 12:00N 42°18' W 083°12'0 0.0 310 / 121012.5 15.7 21.4
2014-Aug-13 10:00N 42°18' W 083°12'0 0.0 290 / 101011.5 14.9 21.9
2014-Aug-13 09:00N 42°18' W 083°12'0 0.0 310 / 91011.1 15.5 21.8
2014-Aug-13 08:00N 42°18' W 083°12'0 0.0 320 / 121010.8 16.1 21.7
2014-Aug-13 07:00N 42°18' W 083°12'0 0.0 320 / 121010.8 16.4 21.5
2014-Aug-13 06:00N 42°18' W 083°12'0 0.0 280 / 111010.8 16.5 21.3
2014-Aug-13 04:00N 42°18' W 083°12'0 0.0 260 / 71010.4 17.7 23.1
2014-Aug-13 01:00N 42°18' W 083°12'0 0.0 300 / 81008.4 19.3 24.4
2014-Aug-13 00:00N 42°18' W 083°12'0 0.0 330 / 111007.4 20.4 24.2
2014-Aug-12 23:00N 42°18' W 083°12'0 0.0 280 / 111007.0 21.5 24.6
2014-Aug-12 21:00N 42°18' W 083°12'0 0.0 210 / 61005.7 20.7 24.8
2014-Aug-12 20:00N 42°18' W 083°12'0 0.0 290 / 61005.7 20.2 22.0
2014-Aug-12 19:00N 42°18' W 083°12'9 1.8 170 / 71005.4 24.4 20.5
2014-Aug-12 14:00N 42°18' W 083°00'0 0.0 240 / 81006.4 19.5 20.3
2014-Aug-12 13:00N 42°18' W 083°00'0 0.0 200 / 61006.4 19.2 20.3
2014-Aug-12 12:00N 42°18' W 083°00'0 0.0 240 / 71006.4 18.8 20.3
2014-Aug-12 11:00N 42°18' W 083°00'0 0.0 180 / 31006.0 18.4 20.3
2014-Aug-12 10:00N 42°18' W 083°00'0 0.0 230 / 51005.7 18.5 20.4
2014-Aug-12 09:00N 42°18' W 083°00'0 0.0 220 / 61005.7 18.3 20.4
2014-Aug-12 08:00N 42°18' W 083°00'0 0.0 240 / 121005.7 18.6 20.4
2014-Aug-12 07:00N 42°18' W 083°00'0 0.0 250 / 131006.0 18.8 20.4
2014-Aug-12 06:00N 42°18' W 083°00'0 0.0 230 / 131006.4 19.2 20.4
2014-Aug-12 05:00N 42°18' W 083°00'0 0.0 230 / 91006.4 19.9 20.4
2014-Aug-12 04:00N 42°18' W 083°00'0 0.0 250 / 81006.4 19.8 20.5
2014-Aug-12 03:00N 42°18' W 083°00'0 0.0 240 / 111005.7 20.2 20.6
2014-Aug-12 02:00N 42°18' W 083°00'0 0.0 250 / 131005.7 21.2 20.6
2014-Aug-12 01:00N 42°18' W 083°00'4 4.4 290 / 61005.4 21.1 20.5
2014-Aug-12 00:00N 42°18' W 083°06'4 2.2 210 / 121005.7 20.9 20.6
2014-Aug-11 22:00N 42°18' W 083°00'2512.6 080 / 121007.4 21.1 20.3
2014-Aug-11 20:00N 42°36' W 082°36'7 7.4 090 / 141010.1 20.6 19.6
2014-Aug-11 19:00N 42°42' W 082°30'6 6.0 140 / 121011.6 21.0 19.7
2014-Aug-11 18:00N 42°48' W 082°30'1312.8 130 / 111012.3 21.3 19.5
2014-Aug-11 17:00N 43°00' W 082°24'1212.0 140 / 161012.0 23.5 19.3
2014-Aug-11 16:00N 43°12' W 082°24'1212.0 120 / 111013.0 22.5 19.1
2014-Aug-11 15:00N 43°24' W 082°24'2412.2 090 / 121013.7 20.5 19.1
2014-Aug-11 13:00N 43°48' W 082°30'1212.0 120 / 151014.0 20.5 18.9
2014-Aug-11 12:00N 44°00' W 082°30'1312.8 110 / 151014.3 20.4 18.2
2014-Aug-11 11:00N 44°12' W 082°36'1312.7 110 / 121015.0 20.4 18.0
2014-Aug-11 10:00N 44°24' W 082°42'6513.0 130 / 191015.4 20.3 17.3
2014-Aug-11 05:00N 45°24' W 083°18'5 9.1 130 / 61017.4 20.4 17.2
2014-Aug-11 04:24N 45°28' W 083°23'1112.5
2014-Aug-11 03:33N 45°37' W 083°32'610.8
2014-Aug-11 03:00N 45°42' W 083°36'614.6 120 / 131017.1 20.9 17.3
2014-Aug-11 02:33N 45°46' W 083°43'1212.3
2014-Aug-11 01:33N 45°56' W 083°53'4 6.5
2014-Aug-11 01:00N 46°00' W 083°54'716.1 110 / 111017.1 20.7 16.0
2014-Aug-11 00:33N 46°05' W 084°01'813.6
2014-Aug-11 00:00N 46°12' W 084°06'2 5.6 120 / 111017.4 21.8 16.8
2014-Aug-10 23:33N 46°13' W 084°09'6 9.8
2014-Aug-10 23:00N 46°18' W 084°12'6 6.0 130 / 111017.4 23.1 17.0
2014-Aug-10 22:00N 46°24' W 084°12'7 7.3 130 / 161017.4 24.9 16.2
2014-Aug-10 21:00N 46°30' W 084°18'4 2.1 160 / 111018.1 26.1 16.1
2014-Aug-10 19:00N 46°30' W 084°24'2010.2 140 / 71019.3 25.9 15.8
2014-Aug-10 17:00N 46°42' W 084°48'1010.2 110 / 121019.6 20.7 13.8
2014-Aug-10 16:00N 46°48' W 085°00'2512.3 100 / 111019.6 18.3 9.4
2014-Aug-10 14:00N 46°48' W 085°36'1212.3 100 / 101019.6 16.7 6.4
2014-Aug-10 13:00N 46°48' W 085°54'6312.6 030 / 31020.3 18.2 9.0
2014-Aug-10 08:00N 46°36' W 087°24'0 0.0 170 / 61019.6 20.3 12.8
2014-Aug-10 07:00N 46°36' W 087°24'0 0.0 120 / 21019.6 19.4 14.5
2014-Aug-10 06:00N 46°36' W 087°24'0 0.0 180 1020.0 19.4 14.4
2014-Aug-10 05:00N 46°36' W 087°24'0 0.0 220 / 11019.6 19.7 15.0
2014-Aug-10 02:00N 46°36' W 087°24'0 0.0 310 / 11020.0 20.8 17.0
2014-Aug-10 01:00N 46°36' W 087°24'4 4.1 110 / 31019.3 20.9 18.5
2014-Aug-10 00:00N 46°36' W 087°18'2512.7 110 / 131019.3 20.6 16.7
2014-Aug-09 22:00N 46°42' W 086°42'1616.5 070 / 91020.0 18.6 15.9
2014-Aug-09 21:00N 46°42' W 086°18'1212.3 050 / 81020.0 18.7 13.3
2014-Aug-09 20:00N 46°42' W 086°00'1413.7 020 / 71020.3 18.8 15.1
2014-Aug-09 19:00N 46°48' W 085°42'2512.3 040 / 81021.0 19.4 9.2
2014-Aug-09 17:00N 46°48' W 085°06'715.8 050 / 21021.7 18.8 14.0
2014-Aug-09 16:34N 46°47' W 084°56'5 8.7
2014-Aug-09 16:00N 46°42' W 084°54'1217.1 200 / 31022.010.8 18.3 14.1
2014-Aug-09 15:19N 46°34' W 084°42'617.5
2014-Aug-09 15:00N 46°30' W 084°36'4 8.8 250 / 51022.0 18.9 16.0
2014-Aug-09 14:32N 46°27' W 084°32'611.8
2014-Aug-09 14:00N 46°30' W 084°24'2 3.2 200 / 41022.0 17.1 15.6
2014-Aug-09 13:23N 46°30' W 084°21'2 5.5
2014-Aug-09 13:00N 46°30' W 084°18'4 4.1 100 / 41021.8 17.2 15.8
2014-Aug-09 12:03N 46°26' W 084°16'351.8
2014-Aug-09 12:00N 46°24' W 084°18'4 8.4 300 / 51021.8 14.3 15.8
2014-Aug-09 11:29N 46°22' W 084°13'612.2
2014-Aug-09 11:00N 46°18' W 084°06'2 4.5 270 / 31021.1 13.8 15.9
2014-Aug-09 10:34N 46°16' W 084°07'4 7.4
2014-Aug-09 10:00N 46°12' W 084°06'511.7 300 / 31020.4 17.0 16.3
2014-Aug-09 09:33N 46°08' W 084°01'1010.4
2014-Aug-09 08:34N 45°59' W 083°53'5 9.5
2014-Aug-09 08:00N 45°54' W 083°54'1216.7 260 / 41020.1 19.5 16.7
2014-Aug-09 07:18N 45°46' W 083°43'411.5
2014-Aug-09 07:00N 45°42' W 083°42'714.9 260 / 111020.1 19.4 17.3
2014-Aug-09 06:30N 45°38' W 083°33'1510.2
2014-Aug-09 05:00N 45°24' W 083°24'1514.7 230 / 141020.4 19.4 17.2
2014-Aug-09 04:00N 45°12' W 083°12'1312.7 230 / 121020.4 19.4 16.9
2014-Aug-09 03:00N 45°00' W 083°06'   230 / 121020.4 19.4 17.0
Track history (hours):
 
Tides and Currents Weather Stations Pressure Air Temp Water Temp Dewpoint Dewpoint Depression Visibility Wind Speed Wind Dir Waves Ship Positions

Herbert C Jackson

More information available from US FCC via Universal Licensing System and Coast Guard Vessel Documentation Center.

Last reported at 2014-Aug-19 03:00 UTC. Time now 2014-Aug-20 16:34 UTC.
Position N 46°54' W 085°12'.

Length 239 m; draft 6.2 m.

Type: Cargo ship. MMSI: 366904930.

Wind from 120 at 17 knots

Barometer 1008.8 mb
Air temperature 14.4 ° C
Water temperature 11.4 ° C

Date/timePositionNaut miles runAvg speedWind from/ knotsBaromVisibWave heightAir tempDewpointWater temp
2014-Aug-19 03:00N 46°54' W 085°12'1413.7 120 / 171008.8 14.4 11.4
2014-Aug-19 02:00N 46°48' W 084°54'1312.7 120 / 151009.8 15.4 12.2
2014-Aug-19 01:00N 46°36' W 084°48'715.5 140 / 221009.5 16.1 14.0
2014-Aug-19 00:32N 46°33' W 084°39'3 6.1
2014-Aug-19 00:00N 46°30' W 084°36'18 5.4 120 / 121010.5 16.4 14.6
2014-Aug-18 20:33N 46°22' W 084°12'8 6.5
2014-Aug-18 19:23N 46°15' W 084°06'9 8.4
2014-Aug-18 18:22N 46°07' W 084°01'910.2
2014-Aug-18 17:29N 46°00' W 083°53'4111.9
2014-Aug-18 14:00N 45°24' W 083°24'2713.6 140 / 91015.7 14.8 15.6
2014-Aug-18 12:00N 45°00' W 083°06'1312.7 100 / 101015.0 14.3 15.1
2014-Aug-18 11:00N 44°48' W 083°00'1312.7 300 / 101015.4 13.7 12.9
2014-Aug-18 10:00N 44°36' W 082°54'1312.7 350 / 71014.7 14.6 14.9
2014-Aug-18 09:00N 44°24' W 082°48'2512.7 040 / 101014.0 15.3 15.5
2014-Aug-18 07:00N 44°00' W 082°36'2412.2 060 / 91014.3 16.4 16.6
2014-Aug-18 05:00N 43°36' W 082°30'1918.5 040 / 101015.4 17.4 16.7
2014-Aug-18 04:00N 43°18' W 082°24'1212.0 030 / 141014.7 17.9 17.7
2014-Aug-18 03:00N 43°06' W 082°24'37 7.4 030 / 171014.3 18.4 18.0
2014-Aug-17 22:00N 42°30' W 082°36'25 8.4 240 / 21014.8 22.8 18.2
2014-Aug-17 19:00N 42°18' W 083°06'4 2.2 040 / 121015.2 22.0 19.3
2014-Aug-17 17:00N 42°18' W 083°12'0 0.0 100 / 21015.9 23.0 22.8
2014-Aug-17 16:00N 42°18' W 083°12'0 0.0 120 / 61016.2 21.8 22.8
2014-Aug-17 13:00N 42°18' W 083°12'0 0.0 010 / 31015.5 19.5 22.6
2014-Aug-17 12:00N 42°18' W 083°12'0 0.0 010 / 61015.5 19.0 22.0
2014-Aug-17 11:00N 42°18' W 083°12'0 0.0 010 / 31015.2 19.1 21.6
2014-Aug-17 09:00N 42°18' W 083°12'25 5.0 090 / 41014.2 19.2 21.2
2014-Aug-17 04:00N 42°30' W 082°42'2010.0 300 / 81012.5 21.5 18.2
2014-Aug-17 02:00N 42°48' W 082°30'6 6.0 320 / 41012.7 22.0 17.9
2014-Aug-17 01:00N 42°54' W 082°30'1312.8 160 / 41011.6 22.3 17.8
2014-Aug-17 00:00N 43°06' W 082°24'1212.0 300 / 141011.0 22.1 17.8
2014-Aug-16 23:00N 43°18' W 082°24'2412.2 210 / 91009.9 21.4 17.4
2014-Aug-16 21:00N 43°42' W 082°30'2612.8 220 / 141008.9 20.4 16.8
2014-Aug-16 19:00N 44°06' W 082°42'1010.5 230 / 211008.6 19.7 16.5
2014-Aug-16 18:00N 44°12' W 082°54'1312.9 220 / 231008.9 19.0 16.2
2014-Aug-16 17:00N 44°12' W 083°12'1212.0 220 / 221008.9 18.3 16.2
2014-Aug-16 16:00N 44°24' W 083°12'1312.7 220 / 251007.210.8 1.017.0 15.6
2014-Aug-16 15:00N 44°36' W 083°06'2412.2 240 / 281005.9 17.4 14.0
2014-Aug-16 13:00N 45°00' W 083°00'2713.6 240 / 251005.9 17.7 14.5
2014-Aug-16 11:00N 45°24' W 083°18'1514.7 240 / 121006.9 16.6 13.8
2014-Aug-16 10:00N 45°36' W 083°30'1010.3 230 / 141006.9 14.4 11.4
2014-Aug-16 09:00N 45°42' W 083°42'1514.6 290 / 81007.9 14.1 9.3
2014-Aug-16 08:00N 45°54' W 083°54'20 9.9 180 / 61007.6 13.7 10.2
2014-Aug-16 06:00N 46°12' W 084°06'7 7.3 250 / 101008.9 16.7 14.2
2014-Aug-16 05:00N 46°18' W 084°12'7 7.3 130 / 41009.6 15.2 14.2
2014-Aug-16 04:00N 46°24' W 084°18'7 2.8 050 / 11010.3 14.5 14.2
2014-Aug-16 01:21N 46°30' W 084°25'0 1.3
2014-Aug-16 01:00N 46°30' W 084°24'8 8.3 200 / 31011.2 15.6 14.2
2014-Aug-16 00:00N 46°30' W 084°36'1514.6 010 / 51011.5 15.6 14.4
2014-Aug-15 23:00N 46°42' W 084°48'1010.2 120 / 71011.2 13.9 12.0
2014-Aug-15 22:00N 46°48' W 085°00'2512.3 010 / 41011.9 13.4 10.6
2014-Aug-15 20:00N 46°48' W 085°36'2914.4 270 / 71012.5 13.7 5.3
2014-Aug-15 18:00N 46°48' W 086°18'1413.7 240 / 81013.5 15.3 9.0
2014-Aug-15 17:00N 46°42' W 086°36'1212.3 220 / 101014.2 14.8 8.6
2014-Aug-15 16:00N 46°42' W 086°54'1413.7 240 / 81014.9 15.3 9.6
2014-Aug-15 15:00N 46°36' W 087°12'8 4.1 230 / 31014.9 16.4 10.8
2014-Aug-15 13:00N 46°36' W 087°24'0 0.0 140 / 11015.6 18.0 14.0
2014-Aug-15 12:00N 46°36' W 087°24'0 0.0 270 / 11015.2 15.5 14.1
2014-Aug-15 10:00N 46°36' W 087°24'0 0.0 310 / 21015.2 13.2 14.0
2014-Aug-15 07:00N 46°36' W 087°24'8 8.2 260 / 81015.6 12.6 14.4
2014-Aug-15 06:00N 46°36' W 087°12'916.3 200 / 131015.2 13.8 12.6
2014-Aug-15 05:27N 46°37' W 086°59'4 8.3
2014-Aug-15 05:00N 46°36' W 086°54'2914.7 240 / 141014.927.0 0.513.8 9.9
2014-Aug-15 03:00N 46°42' W 086°12'1010.2 280 / 151014.6 12.8 12.3
2014-Aug-15 02:00N 46°48' W 086°00'1212.3 280 / 181014.2 11.7 10.7
2014-Aug-15 01:00N 46°48' W 085°42'1212.3 270 / 181014.2 9.4 5.8
2014-Aug-15 00:00N 46°48' W 085°24'4511.2 260 / 201014.2 9.6 10.6
2014-Aug-14 20:00N 46°30' W 084°24'4 4.1 300 / 261013.2 13.5 13.7
2014-Aug-14 19:00N 46°30' W 084°18'0 0.0 300 / 201014.3 13.8 13.5
2014-Aug-14 17:00N 46°30' W 084°18'1312.7 290 / 221015.0 12.6 13.4
2014-Aug-14 16:00N 46°18' W 084°12'7 7.3 290 / 281014.0 12.4 13.2
2014-Aug-14 15:00N 46°12' W 084°06'6 7.8 310 / 191015.4 13.0 13.6
2014-Aug-14 14:17N 46°08' W 084°01'2 6.4
2014-Aug-14 14:00N 46°06' W 084°00'712.4 320 / 241014.3 13.0 14.1
2014-Aug-14 13:28N 46°02' W 083°53'816.1
2014-Aug-14 13:00N 45°54' W 083°54'510.6 300 / 191014.7 12.0 9.5
2014-Aug-14 12:33N 45°51' W 083°49'610.2
2014-Aug-14 12:00N 45°48' W 083°42'1312.7 300 / 271014.0 10.7 10.8
2014-Aug-14 11:00N 45°36' W 083°36'1514.7 300 / 251013.7 12.7 14.2
2014-Aug-14 10:00N 45°24' W 083°24'1514.7 320 / 241013.0 12.9 15.2
2014-Aug-14 09:00N 45°12' W 083°12'20 9.9 310 / 221013.3 13.0 13.7
2014-Aug-14 07:00N 44°54' W 083°00'1312.7 350 / 311012.3 13.4 14.3
2014-Aug-14 06:00N 44°42' W 082°54'3812.7 340 / 311012.0 13.4 14.4
2014-Aug-14 03:00N 44°06' W 082°36'1212.0 300 / 381011.0 17.2 16.5
2014-Aug-14 02:00N 43°54' W 082°36'4912.2 300 / 161013.0 18.2 17.1
2014-Aug-13 22:00N 43°06' W 082°24'1212.0 010 / 111013.0 19.5 18.8
2014-Aug-13 21:00N 42°54' W 082°24'35 8.7 310 / 141013.7 21.5 18.6
2014-Aug-13 17:00N 42°24' W 082°48'1110.7 300 / 231012.8 21.3 19.8
2014-Aug-13 16:00N 42°18' W 083°00'9 4.4 310 / 151013.8 20.8 19.7
2014-Aug-13 14:00N 42°18' W 083°12'0 0.0 320 / 161013.1 18.5 21.3
2014-Aug-13 12:00N 42°18' W 083°12'0 0.0 310 / 121012.5 15.7 21.4
2014-Aug-13 10:00N 42°18' W 083°12'0 0.0 290 / 101011.5 14.9 21.9
2014-Aug-13 09:00N 42°18' W 083°12'0 0.0 310 / 91011.1 15.5 21.8
2014-Aug-13 08:00N 42°18' W 083°12'0 0.0 320 / 121010.8 16.1 21.7
2014-Aug-13 07:00N 42°18' W 083°12'0 0.0 320 / 121010.8 16.4 21.5
2014-Aug-13 06:00N 42°18' W 083°12'0 0.0 280 / 111010.8 16.5 21.3
2014-Aug-13 04:00N 42°18' W 083°12'0 0.0 260 / 71010.4 17.7 23.1
2014-Aug-13 01:00N 42°18' W 083°12'0 0.0 300 / 81008.4 19.3 24.4
2014-Aug-13 00:00N 42°18' W 083°12'0 0.0 330 / 111007.4 20.4 24.2
2014-Aug-12 23:00N 42°18' W 083°12'0 0.0 280 / 111007.0 21.5 24.6
2014-Aug-12 21:00N 42°18' W 083°12'0 0.0 210 / 61005.7 20.7 24.8
2014-Aug-12 20:00N 42°18' W 083°12'0 0.0 290 / 61005.7 20.2 22.0
2014-Aug-12 19:00N 42°18' W 083°12'9 1.8 170 / 71005.4 24.4 20.5
2014-Aug-12 14:00N 42°18' W 083°00'0 0.0 240 / 81006.4 19.5 20.3
2014-Aug-12 13:00N 42°18' W 083°00'0 0.0 200 / 61006.4 19.2 20.3
2014-Aug-12 12:00N 42°18' W 083°00'0 0.0 240 / 71006.4 18.8 20.3
2014-Aug-12 11:00N 42°18' W 083°00'0 0.0 180 / 31006.0 18.4 20.3
2014-Aug-12 10:00N 42°18' W 083°00'0 0.0 230 / 51005.7 18.5 20.4
2014-Aug-12 09:00N 42°18' W 083°00'0 0.0 220 / 61005.7 18.3 20.4
2014-Aug-12 08:00N 42°18' W 083°00'0 0.0 240 / 121005.7 18.6 20.4
2014-Aug-12 07:00N 42°18' W 083°00'0 0.0 250 / 131006.0 18.8 20.4
2014-Aug-12 06:00N 42°18' W 083°00'0 0.0 230 / 131006.4 19.2 20.4
2014-Aug-12 05:00N 42°18' W 083°00'0 0.0 230 / 91006.4 19.9 20.4
2014-Aug-12 04:00N 42°18' W 083°00'0 0.0 250 / 81006.4 19.8 20.5
2014-Aug-12 03:00N 42°18' W 083°00'0 0.0 240 / 111005.7 20.2 20.6
2014-Aug-12 02:00N 42°18' W 083°00'0 0.0 250 / 131005.7 21.2 20.6
2014-Aug-12 01:00N 42°18' W 083°00'4 4.4 290 / 61005.4 21.1 20.5
2014-Aug-12 00:00N 42°18' W 083°06'4 2.2 210 / 121005.7 20.9 20.6
2014-Aug-11 22:00N 42°18' W 083°00'2512.6 080 / 121007.4 21.1 20.3
2014-Aug-11 20:00N 42°36' W 082°36'7 7.4 090 / 141010.1 20.6 19.6
2014-Aug-11 19:00N 42°42' W 082°30'6 6.0 140 / 121011.6 21.0 19.7
2014-Aug-11 18:00N 42°48' W 082°30'1312.8 130 / 111012.3 21.3 19.5
2014-Aug-11 17:00N 43°00' W 082°24'1212.0 140 / 161012.0 23.5 19.3
2014-Aug-11 16:00N 43°12' W 082°24'1212.0 120 / 111013.0 22.5 19.1
2014-Aug-11 15:00N 43°24' W 082°24'2412.2 090 / 121013.7 20.5 19.1
2014-Aug-11 13:00N 43°48' W 082°30'1212.0 120 / 151014.0 20.5 18.9
2014-Aug-11 12:00N 44°00' W 082°30'1312.8 110 / 151014.3 20.4 18.2
2014-Aug-11 11:00N 44°12' W 082°36'1312.7 110 / 121015.0 20.4 18.0
2014-Aug-11 10:00N 44°24' W 082°42'6513.0 130 / 191015.4 20.3 17.3
2014-Aug-11 05:00N 45°24' W 083°18'5 9.1 130 / 61017.4 20.4 17.2
2014-Aug-11 04:24N 45°28' W 083°23'1112.5
2014-Aug-11 03:33N 45°37' W 083°32'610.8
2014-Aug-11 03:00N 45°42' W 083°36'614.6 120 / 131017.1 20.9 17.3
2014-Aug-11 02:33N 45°46' W 083°43'1212.3
2014-Aug-11 01:33N 45°56' W 083°53'4 6.5
2014-Aug-11 01:00N 46°00' W 083°54'716.1 110 / 111017.1 20.7 16.0
2014-Aug-11 00:33N 46°05' W 084°01'813.6
2014-Aug-11 00:00N 46°12' W 084°06'2 5.6 120 / 111017.4 21.8 16.8
2014-Aug-10 23:33N 46°13' W 084°09'6 9.8
2014-Aug-10 23:00N 46°18' W 084°12'6 6.0 130 / 111017.4 23.1 17.0
2014-Aug-10 22:00N 46°24' W 084°12'7 7.3 130 / 161017.4 24.9 16.2
2014-Aug-10 21:00N 46°30' W 084°18'4 2.1 160 / 111018.1 26.1 16.1
2014-Aug-10 19:00N 46°30' W 084°24'2010.2 140 / 71019.3 25.9 15.8
2014-Aug-10 17:00N 46°42' W 084°48'1010.2 110 / 121019.6 20.7 13.8
2014-Aug-10 16:00N 46°48' W 085°00'2512.3 100 / 111019.6 18.3 9.4
2014-Aug-10 14:00N 46°48' W 085°36'1212.3 100 / 101019.6 16.7 6.4
2014-Aug-10 13:00N 46°48' W 085°54'6312.6 030 / 31020.3 18.2 9.0
2014-Aug-10 08:00N 46°36' W 087°24'0 0.0 170 / 61019.6 20.3 12.8
2014-Aug-10 07:00N 46°36' W 087°24'0 0.0 120 / 21019.6 19.4 14.5
2014-Aug-10 06:00N 46°36' W 087°24'0 0.0 180 1020.0 19.4 14.4
2014-Aug-10 05:00N 46°36' W 087°24'0 0.0 220 / 11019.6 19.7 15.0
2014-Aug-10 02:00N 46°36' W 087°24'0 0.0 310 / 11020.0 20.8 17.0
2014-Aug-10 01:00N 46°36' W 087°24'4 4.1 110 / 31019.3 20.9 18.5
2014-Aug-10 00:00N 46°36' W 087°18'2512.7 110 / 131019.3 20.6 16.7
2014-Aug-09 22:00N 46°42' W 086°42'1616.5 070 / 91020.0 18.6 15.9
2014-Aug-09 21:00N 46°42' W 086°18'1212.3 050 / 81020.0 18.7 13.3
2014-Aug-09 20:00N 46°42' W 086°00'1413.7 020 / 71020.3 18.8 15.1
2014-Aug-09 19:00N 46°48' W 085°42'2512.3 040 / 81021.0 19.4 9.2
2014-Aug-09 17:00N 46°48' W 085°06'715.8 050 / 21021.7 18.8 14.0
2014-Aug-09 16:34N 46°47' W 084°56'5 8.7
2014-Aug-09 16:00N 46°42' W 084°54'1217.1 200 / 31022.010.8 18.3 14.1
2014-Aug-09 15:19N 46°34' W 084°42'617.5
2014-Aug-09 15:00N 46°30' W 084°36'4 8.8 250 / 51022.0 18.9 16.0
2014-Aug-09 14:32N 46°27' W 084°32'611.8
2014-Aug-09 14:00N 46°30' W 084°24'2 3.2 200 / 41022.0 17.1 15.6
2014-Aug-09 13:23N 46°30' W 084°21'2 5.5
2014-Aug-09 13:00N 46°30' W 084°18'4 4.1 100 / 41021.8 17.2 15.8
2014-Aug-09 12:03N 46°26' W 084°16'351.8
2014-Aug-09 12:00N 46°24' W 084°18'4 8.4 300 / 51021.8 14.3 15.8
2014-Aug-09 11:29N 46°22' W 084°13'612.2
2014-Aug-09 11:00N 46°18' W 084°06'2 4.5 270 / 31021.1 13.8 15.9
2014-Aug-09 10:34N 46°16' W 084°07'4 7.4
2014-Aug-09 10:00N 46°12' W 084°06'511.7 300 / 31020.4 17.0 16.3
2014-Aug-09 09:33N 46°08' W 084°01'1010.4
2014-Aug-09 08:34N 45°59' W 083°53'5 9.5
2014-Aug-09 08:00N 45°54' W 083°54'1216.7 260 / 41020.1 19.5 16.7
2014-Aug-09 07:18N 45°46' W 083°43'411.5
2014-Aug-09 07:00N 45°42' W 083°42'714.9 260 / 111020.1 19.4 17.3
2014-Aug-09 06:30N 45°38' W 083°33'1510.2
2014-Aug-09 05:00N 45°24' W 083°24'1514.7 230 / 141020.4 19.4 17.2
2014-Aug-09 04:00N 45°12' W 083°12'1312.7 230 / 121020.4 19.4 16.9
2014-Aug-09 03:00N 45°00' W 083°06'   230 / 121020.4 19.4 17.0

Dump ship's entire track history